Time;durP1;ratioP1;P1;durP2;ratioP2;P2;SDS_P1;SDS_P2;PMS_P1;PMS_P2;Temp;Humidity;BMP_temperature;BMP_pressure;BME280_temperature;BME280_humidity;BME280_pressure;Samples;Min_cycle;Max_cycle;Signal;HPM_P1;HPM_P2
2022/03/12 00:00:35;;;;;;;11.35;5.40;;;1.80;43.40;;;;;;5019404;28;20041;-71
2022/03/12 00:03:01;;;;;;;14.43;5.65;;;1.80;43.40;;;;;;5017700;28;20116;-65
2022/03/12 00:05:29;;;;;;;16.02;5.63;;;1.80;43.30;;;;;;5018461;28;20037;-64
2022/03/12 00:07:55;;;;;;;13.68;5.82;;;1.70;43.50;;;;;;5019409;28;20493;-70
2022/03/12 00:10:22;;;;;;;14.35;5.07;;;1.70;43.50;;;;;;5017992;28;20056;-70
2022/03/12 00:12:50;;;;;;;13.20;5.93;;;1.70;43.40;;;;;;5020275;28;20047;-64
2022/03/12 00:15:15;;;;;;;14.73;6.30;;;1.70;43.50;;;;;;5019850;28;20039;-64
2022/03/12 00:17:43;;;;;;;14.00;5.90;;;1.60;43.60;;;;;;5019928;28;20409;-64
2022/03/12 00:20:12;;;;;;;15.80;5.75;;;1.60;43.70;;;;;;5017419;28;20048;-64
2022/03/12 00:22:44;;;;;;;23.38;6.95;;;1.60;43.80;;;;;;5020244;28;20064;-64
2022/03/12 00:25:11;;;;;;;14.85;6.20;;;1.60;43.80;;;;;;5019074;28;20037;-65
2022/03/12 00:27:42;;;;;;;16.52;6.57;;;1.60;43.90;;;;;;5018897;28;20025;-65
2022/03/12 00:30:17;;;;;;;18.15;5.95;;;1.60;43.60;;;;;;5016455;28;20815;-65
2022/03/12 00:32:44;;;;;;;12.38;6.18;;;1.50;43.70;;;;;;5021784;28;20088;-65
2022/03/12 00:35:10;;;;;;;12.80;6.22;;;1.50;43.90;;;;;;5020395;28;20068;-63
2022/03/12 00:37:37;;;;;;;17.25;5.85;;;1.50;44.10;;;;;;5023726;28;20041;-64
2022/03/12 00:40:04;;;;;;;18.05;5.97;;;1.50;43.90;;;;;;5024247;28;20041;-63
2022/03/12 00:42:30;;;;;;;18.25;7.10;;;1.40;43.90;;;;;;5019235;28;20040;-64
2022/03/12 00:44:57;;;;;;;15.32;6.35;;;1.40;44.00;;;;;;5023867;28;20057;-65
2022/03/12 00:47:26;;;;;;;16.17;5.53;;;1.40;44.00;;;;;;5023840;28;20123;-63
2022/03/12 00:49:53;;;;;;;11.98;5.15;;;1.40;44.00;;;;;;5023879;28;20124;-64
2022/03/12 00:52:20;;;;;;;16.17;6.13;;;1.40;44.20;;;;;;5023605;28;20457;-64
2022/03/12 00:54:45;;;;;;;16.10;5.63;;;1.30;44.10;;;;;;5023778;28;20059;-64
2022/03/12 00:57:12;;;;;;;18.58;7.70;;;1.30;44.00;;;;;;5023114;28;20061;-64
2022/03/12 00:59:39;;;;;;;10.93;5.70;;;1.30;43.80;;;;;;5023263;28;20076;-64
2022/03/12 01:02:06;;;;;;;15.82;5.80;;;1.30;44.10;;;;;;5017246;28;20033;-63
2022/03/12 01:04:32;;;;;;;16.35;6.38;;;1.20;44.00;;;;;;5023091;28;20560;-63
2022/03/12 01:06:58;;;;;;;15.70;5.75;;;1.30;44.50;;;;;;5023011;28;20037;-64
2022/03/12 01:09:23;;;;;;;20.20;6.63;;;1.20;44.20;;;;;;5023272;28;20035;-63
2022/03/12 01:11:49;;;;;;;17.10;6.85;;;1.30;44.10;;;;;;5023643;28;20485;-64
2022/03/12 01:14:15;;;;;;;17.08;6.38;;;1.20;44.20;;;;;;5023306;28;20034;-63
2022/03/12 01:16:41;;;;;;;11.77;5.75;;;1.20;44.50;;;;;;5023654;28;20048;-63
2022/03/12 01:19:08;;;;;;;14.88;5.65;;;1.20;44.70;;;;;;5023415;28;20048;-63
2022/03/12 01:21:35;;;;;;;15.23;6.45;;;1.20;44.30;;;;;;5023131;28;20033;-63
2022/03/12 01:24:00;;;;;;;23.38;6.60;;;1.20;44.40;;;;;;5023204;28;20068;-63
2022/03/12 01:26:26;;;;;;;16.50;6.32;;;1.20;44.70;;;;;;5022750;28;20037;-63
2022/03/12 01:28:52;;;;;;;19.45;6.55;;;1.10;44.70;;;;;;5023158;28;20041;-63
2022/03/12 01:31:19;;;;;;;18.55;6.32;;;1.10;44.80;;;;;;5022958;28;20044;-63
2022/03/12 01:33:45;;;;;;;15.68;6.85;;;1.10;44.60;;;;;;5023343;28;20037;-63
2022/03/12 01:36:12;;;;;;;15.23;6.45;;;1.10;45.00;;;;;;5022104;28;20042;-63
2022/03/12 01:38:49;;;;;;;12.18;6.35;;;1.10;44.90;;;;;;5022807;28;20060;-63
2022/03/12 01:41:38;;;;;;;15.63;6.50;;;1.10;44.80;;;;;;5022561;28;20136;-63
2022/03/12 01:44:05;;;;;;;16.38;7.00;;;1.00;45.00;;;;;;5022078;28;20044;-63
2022/03/12 01:46:34;;;;;;;13.90;6.63;;;1.00;44.90;;;;;;5018678;28;20072;-64
2022/03/12 01:49:05;;;;;;;16.15;6.78;;;1.00;44.80;;;;;;5023399;28;20041;-63
2022/03/12 01:51:31;;;;;;;15.73;6.85;;;1.00;45.10;;;;;;5022732;28;20040;-63
2022/03/12 01:53:58;;;;;;;17.70;6.97;;;0.90;45.20;;;;;;5022937;28;20045;-63
2022/03/12 01:56:27;;;;;;;21.92;6.93;;;0.90;45.20;;;;;;5022674;28;20117;-63
2022/03/12 01:58:53;;;;;;;17.90;6.85;;;0.80;45.30;;;;;;5022697;28;20509;-65
2022/03/12 02:01:20;;;;;;;17.00;6.72;;;0.80;45.80;;;;;;5022589;28;20037;-64
2022/03/12 02:03:47;;;;;;;16.65;6.85;;;0.90;45.70;;;;;;5023327;28;20032;-63
2022/03/12 02:06:19;;;;;;;21.17;7.18;;;0.90;45.80;;;;;;5022172;28;20029;-63
2022/03/12 02:08:49;;;;;;;13.00;6.25;;;0.80;45.80;;;;;;5020927;28;20039;-63
2022/03/12 02:11:27;;;;;;;19.75;6.22;;;0.80;45.90;;;;;;5023313;28;20032;-64
2022/03/12 02:14:10;;;;;;;15.57;6.75;;;0.80;45.90;;;;;;5020808;28;20041;-64
2022/03/12 02:16:36;;;;;;;15.30;7.03;;;0.70;46.00;;;;;;5022341;28;20049;-65
2022/03/12 02:19:03;;;;;;;22.60;7.25;;;0.80;46.20;;;;;;5021147;28;20048;-65
2022/03/12 02:21:41;;;;;;;19.25;7.18;;;0.70;45.90;;;;;;5022271;28;20816;-64
2022/03/12 02:24:10;;;;;;;18.70;6.95;;;0.70;46.00;;;;;;5022860;28;20052;-64
2022/03/12 02:26:38;;;;;;;16.30;6.95;;;0.70;46.10;;;;;;5017439;28;20029;-63
2022/03/12 02:29:09;;;;;;;20.20;6.97;;;0.70;46.10;;;;;;5017182;28;20080;-63
2022/03/12 02:31:36;;;;;;;18.25;6.85;;;0.70;46.20;;;;;;5018431;28;20045;-63
2022/03/12 02:34:04;;;;;;;17.60;7.03;;;0.70;46.10;;;;;;5018723;28;20034;-65
2022/03/12 02:36:30;;;;;;;15.63;7.40;;;0.70;46.20;;;;;;5016273;28;20037;-65
2022/03/12 02:38:57;;;;;;;16.00;5.88;;;0.70;46.10;;;;;;5018883;28;20041;-65
2022/03/12 02:41:24;;;;;;;14.80;6.60;;;0.70;46.50;;;;;;5020488;28;20045;-65
2022/03/12 02:43:52;;;;;;;17.42;6.47;;;0.70;46.50;;;;;;5020848;28;20025;-65
2022/03/12 02:46:18;;;;;;;15.43;7.28;;;0.70;46.50;;;;;;5017050;28;20033;-64
2022/03/12 02:48:50;;;;;;;20.65;6.80;;;0.70;46.30;;;;;;5021196;28;20096;-65
2022/03/12 02:51:17;;;;;;;20.15;6.97;;;0.60;46.30;;;;;;5020419;28;20502;-65
2022/03/12 02:53:44;;;;;;;23.58;7.82;;;0.60;46.90;;;;;;5019758;28;20030;-65
2022/03/12 02:56:11;;;;;;;15.98;7.05;;;0.60;46.60;;;;;;5020655;28;20032;-65
2022/03/12 02:58:37;;;;;;;21.30;7.25;;;0.60;46.60;;;;;;5021542;28;20131;-65
2022/03/12 03:01:04;;;;;;;16.20;7.25;;;0.50;46.80;;;;;;5021712;28;20091;-65
2022/03/12 03:03:35;;;;;;;19.10;7.40;;;0.50;47.00;;;;;;5018076;28;20034;-67
2022/03/12 03:06:01;;;;;;;19.00;7.50;;;0.50;46.80;;;;;;5020804;28;20040;-65
2022/03/12 03:08:28;;;;;;;17.80;7.28;;;0.50;47.00;;;;;;5021803;28;20207;-65
2022/03/12 03:10:57;;;;;;;16.92;7.35;;;0.50;46.80;;;;;;5021292;28;20132;-65
2022/03/12 03:13:23;;;;;;;18.63;7.55;;;0.50;47.10;;;;;;5021051;28;20033;-66
2022/03/12 03:15:53;;;;;;;22.15;8.07;;;0.50;47.40;;;;;;5020516;28;20037;-65
2022/03/12 03:18:22;;;;;;;22.10;8.02;;;0.50;47.20;;;;;;5017621;28;20029;-65
2022/03/12 03:20:49;;;;;;;21.13;7.05;;;0.50;47.10;;;;;;5020628;28;20513;-65
2022/03/12 03:23:15;;;;;;;15.63;7.25;;;0.50;47.30;;;;;;5020911;28;20025;-65
2022/03/12 03:25:41;;;;;;;15.60;6.88;;;0.40;47.40;;;;;;5020399;28;20102;-65
2022/03/12 03:28:08;;;;;;;19.75;7.68;;;0.40;47.40;;;;;;5020755;28;20710;-65
2022/03/12 03:30:36;;;;;;;16.95;7.05;;;0.40;47.70;;;;;;5021260;28;20121;-65
2022/03/12 03:33:05;;;;;;;19.70;7.63;;;0.30;47.50;;;;;;5020988;28;20656;-65
2022/03/12 03:35:31;;;;;;;15.18;6.78;;;0.30;47.60;;;;;;5017046;28;20025;-65
2022/03/12 03:37:58;;;;;;;19.75;7.25;;;0.30;47.90;;;;;;5020887;28;20889;-65
2022/03/12 03:40:25;;;;;;;21.27;7.25;;;0.30;47.30;;;;;;5021777;28;20034;-65
2022/03/12 03:42:50;;;;;;;19.35;7.38;;;0.40;47.60;;;;;;5020797;28;20095;-65
2022/03/12 03:45:27;;;;;;;20.42;7.45;;;0.30;47.40;;;;;;5021112;28;20021;-65
2022/03/12 03:47:55;;;;;;;17.25;7.70;;;0.30;47.70;;;;;;5021364;28;20112;-65
2022/03/12 03:50:26;;;;;;;19.58;7.20;;;0.30;47.60;;;;;;5017315;28;20179;-65
2022/03/12 03:52:55;;;;;;;19.55;8.23;;;0.30;47.60;;;;;;5021342;28;20037;-65
2022/03/12 03:55:25;;;;;;;21.48;8.15;;;0.30;48.00;;;;;;5021138;28;20048;-65
2022/03/12 03:57:53;;;;;;;17.63;7.88;;;0.30;47.70;;;;;;5020958;28;20111;-65
2022/03/12 04:00:23;;;;;;;17.67;7.22;;;0.30;47.40;;;;;;5021192;28;20774;-65
2022/03/12 04:03:01;;;;;;;25.13;9.00;;;0.30;47.80;;;;;;5017506;28;20037;-64
2022/03/12 04:05:31;;;;;;;18.15;7.68;;;0.30;47.50;;;;;;5021788;28;20095;-63
2022/03/12 04:07:57;;;;;;;21.98;8.23;;;0.40;47.60;;;;;;5024845;28;20033;-63
2022/03/12 04:10:24;;;;;;;20.85;7.88;;;0.40;47.40;;;;;;5024801;28;20037;-63
2022/03/12 04:12:50;;;;;;;19.80;8.10;;;0.40;47.50;;;;;;5022769;28;20041;-63
2022/03/12 04:15:17;;;;;;;20.20;7.63;;;0.30;47.70;;;;;;5024322;28;20044;-64
2022/03/12 04:17:44;;;;;;;20.75;7.55;;;0.30;47.60;;;;;;5024756;28;20429;-64
2022/03/12 04:20:14;;;;;;;20.83;7.80;;;0.30;47.60;;;;;;5022412;28;20037;-63
2022/03/12 04:22:40;;;;;;;23.05;7.50;;;0.30;47.70;;;;;;5024764;28;20037;-64
2022/03/12 04:25:11;;;;;;;18.08;7.15;;;0.30;47.80;;;;;;5024363;28;20060;-63
2022/03/12 04:27:42;;;;;;;20.27;7.47;;;0.30;47.80;;;;;;5020623;28;20067;-63
2022/03/12 04:30:09;;;;;;;19.70;8.20;;;0.30;47.80;;;;;;5024850;28;20079;-63
2022/03/12 04:32:35;;;;;;;21.85;8.07;;;0.30;47.60;;;;;;5024691;28;20037;-64
2022/03/12 04:35:02;;;;;;;26.77;9.27;;;0.30;47.90;;;;;;5024189;28;20129;-63
2022/03/12 04:37:28;;;;;;;20.10;8.45;;;0.30;47.60;;;;;;5024380;28;20029;-64
2022/03/12 04:39:54;;;;;;;21.70;7.00;;;0.30;47.90;;;;;;5024476;28;20611;-63
2022/03/12 04:42:21;;;;;;;21.98;8.10;;;0.20;47.40;;;;;;5023562;28;20051;-63
2022/03/12 04:44:49;;;;;;;23.88;9.07;;;0.20;47.80;;;;;;5023927;28;20036;-64
2022/03/12 04:47:20;;;;;;;22.30;8.10;;;0.10;48.00;;;;;;5023763;28;20044;-63
2022/03/12 04:49:46;;;;;;;22.88;7.63;;;0.10;47.90;;;;;;5023460;28;20040;-64
2022/03/12 04:52:12;;;;;;;26.88;8.63;;;0.10;48.00;;;;;;5024074;28;20699;-64
2022/03/12 04:54:39;;;;;;;25.83;7.97;;;0.00;48.20;;;;;;5023210;28;20029;-64
2022/03/12 04:57:05;;;;;;;26.35;9.52;;;0.00;48.00;;;;;;5022260;28;20042;-64
2022/03/12 04:59:31;;;;;;;30.73;10.93;;;0.10;48.20;;;;;;5023504;28;20048;-64
2022/03/12 05:01:57;;;;;;;23.38;8.20;;;0.00;48.20;;;;;;5023251;28;20051;-63
2022/03/12 05:04:25;;;;;;;23.80;9.32;;;0.00;48.30;;;;;;5019386;28;20128;-64
2022/03/12 05:06:51;;;;;;;24.10;8.82;;;0.00;48.30;;;;;;5022381;28;20116;-64
2022/03/12 05:09:19;;;;;;;20.60;8.15;;;-0.10;48.80;;;;;;5023600;28;20033;-63
2022/03/12 05:11:49;;;;;;;20.40;7.97;;;-0.10;48.70;;;;;;5023129;28;20033;-64
2022/03/12 05:14:17;;;;;;;25.55;11.15;;;0.00;48.70;;;;;;5023640;28;20041;-64
2022/03/12 05:16:44;;;;;;;21.80;8.45;;;0.00;48.50;;;;;;5021930;28;20033;-63
2022/03/12 05:19:13;;;;;;;19.08;8.07;;;0.00;48.70;;;;;;5022597;28;20041;-63
2022/03/12 05:21:38;;;;;;;20.55;8.93;;;0.00;48.40;;;;;;5020107;28;20199;-63
2022/03/12 05:24:05;;;;;;;20.88;8.50;;;0.00;48.10;;;;;;5023701;28;20120;-64
2022/03/12 05:26:30;;;;;;;25.15;9.07;;;0.00;49.10;;;;;;5023008;28;20485;-63
2022/03/12 05:28:56;;;;;;;41.58;12.32;;;0.00;48.70;;;;;;5028422;28;20040;-64
2022/03/12 05:31:22;;;;;;;23.02;8.85;;;0.00;48.50;;;;;;5024013;28;20048;-63
2022/03/12 05:33:48;;;;;;;19.98;8.05;;;0.00;48.70;;;;;;5023081;28;20059;-64
2022/03/12 05:36:14;;;;;;;19.45;8.75;;;0.00;48.20;;;;;;5023484;28;20537;-63
2022/03/12 05:38:39;;;;;;;21.58;8.00;;;0.00;48.50;;;;;;5023179;28;20120;-63
2022/03/12 05:41:10;;;;;;;19.13;8.43;;;0.00;48.50;;;;;;5023123;28;20549;-63
2022/03/12 05:43:40;;;;;;;25.38;8.18;;;0.00;49.00;;;;;;5023488;28;20144;-64
2022/03/12 05:46:06;;;;;;;21.67;8.55;;;0.00;48.80;;;;;;5022843;28;20892;-64
2022/03/12 05:48:32;;;;;;;21.15;7.60;;;0.00;48.80;;;;;;5022648;28;20033;-64
2022/03/12 05:50:59;;;;;;;19.85;8.32;;;0.00;48.50;;;;;;5022673;28;20017;-64
2022/03/12 05:53:25;;;;;;;15.73;6.97;;;0.10;48.30;;;;;;5023321;28;20378;-64
2022/03/12 05:55:52;;;;;;;28.13;8.73;;;0.10;48.50;;;;;;5021920;28;20117;-64
2022/03/12 05:58:19;;;;;;;21.05;8.63;;;0.10;48.30;;;;;;5022755;28;20473;-64
2022/03/12 06:00:53;;;;;;;19.40;8.38;;;0.10;48.50;;;;;;5022232;28;20117;-64
2022/03/12 06:03:18;;;;;;;27.67;8.38;;;0.10;48.10;;;;;;5021975;28;20061;-64
2022/03/12 06:05:45;;;;;;;24.55;9.07;;;0.10;48.30;;;;;;5021531;28;20076;-64
2022/03/12 06:08:14;;;;;;;21.00;8.32;;;0.20;48.50;;;;;;5019742;28;20037;-65
2022/03/12 06:10:44;;;;;;;18.85;8.93;;;0.20;48.20;;;;;;5022317;28;20030;-65
2022/03/12 06:13:13;;;;;;;21.60;7.82;;;0.20;48.10;;;;;;5023045;28;20046;-64
2022/03/12 06:15:39;;;;;;;23.38;8.32;;;0.30;48.30;;;;;;5018594;28;20029;-64
2022/03/12 06:18:05;;;;;;;18.00;8.20;;;0.30;48.10;;;;;;5021131;28;20046;-64
2022/03/12 06:20:33;;;;;;;26.83;8.60;;;0.40;48.00;;;;;;5022515;28;20030;-65
2022/03/12 06:22:58;;;;;;;19.38;7.97;;;0.50;47.60;;;;;;5021594;28;20040;-64
2022/03/12 06:25:24;;;;;;;18.67;8.27;;;0.60;47.70;;;;;;5021725;28;20026;-65
2022/03/12 06:27:56;;;;;;;20.02;8.82;;;0.60;47.20;;;;;;5021431;28;20039;-65
2022/03/12 06:30:25;;;;;;;17.45;7.15;;;0.60;47.70;;;;;;5021766;28;20048;-65
2022/03/12 06:32:51;;;;;;;21.02;7.85;;;0.60;47.50;;;;;;5019159;28;20501;-64
2022/03/12 06:35:18;;;;;;;19.20;8.00;;;0.70;47.20;;;;;;5021320;28;20030;-64
2022/03/12 06:37:44;;;;;;;17.80;7.93;;;0.80;47.00;;;;;;5019626;28;20045;-65
2022/03/12 06:40:18;;;;;;;19.08;8.57;;;0.80;46.90;;;;;;5021321;28;20401;-63
2022/03/12 06:42:45;;;;;;;21.52;9.15;;;0.90;46.70;;;;;;5021439;28;20029;-69
2022/03/12 06:45:13;;;;;;;17.88;8.95;;;0.90;46.60;;;;;;5020116;28;20679;-69
2022/03/12 06:47:39;;;;;;;21.38;8.52;;;0.90;46.40;;;;;;5017079;28;20025;-69
2022/03/12 06:50:09;;;;;;;17.02;7.78;;;1.00;46.10;;;;;;5021097;28;20429;-69
2022/03/12 06:52:35;;;;;;;21.23;8.23;;;1.10;45.70;;;;;;5021784;28;20037;-69
2022/03/12 06:55:01;;;;;;;23.27;8.23;;;1.20;45.50;;;;;;5020344;28;20795;-70
2022/03/12 06:57:27;;;;;;;15.05;6.75;;;1.30;45.60;;;;;;5021002;28;20037;-69
2022/03/12 06:59:52;;;;;;;23.88;8.70;;;1.30;45.10;;;;;;5020698;28;20036;-69
2022/03/12 07:02:18;;;;;;;21.98;9.18;;;1.40;45.10;;;;;;5021140;28;20124;-69
2022/03/12 07:04:44;;;;;;;23.15;8.32;;;1.50;45.00;;;;;;5020634;28;20596;-69
2022/03/12 07:07:10;;;;;;;23.92;9.52;;;1.70;44.40;;;;;;5020006;28;20107;-70
2022/03/12 07:09:36;;;;;;;20.27;7.55;;;1.70;44.00;;;;;;5020835;28;20037;-69
2022/03/12 07:12:03;;;;;;;17.10;7.50;;;1.70;44.30;;;;;;5020653;28;20045;-69
2022/03/12 07:14:31;;;;;;;16.67;6.95;;;1.70;44.00;;;;;;5020515;28;20391;-69
2022/03/12 07:16:57;;;;;;;18.40;7.50;;;1.80;43.80;;;;;;5019799;28;20025;-69
2022/03/12 07:19:23;;;;;;;18.40;7.78;;;2.00;43.80;;;;;;5020924;28;20087;-69
2022/03/12 07:21:51;;;;;;;18.90;8.30;;;2.00;43.40;;;;;;5020281;28;20035;-69
2022/03/12 07:24:18;;;;;;;17.35;6.75;;;2.10;42.90;;;;;;5020225;28;20076;-69
2022/03/12 07:26:44;;;;;;;20.70;7.65;;;2.20;43.40;;;;;;5020154;28;20441;-69
2022/03/12 07:29:11;;;;;;;20.38;7.68;;;2.40;42.60;;;;;;5015676;28;20128;-69
2022/03/12 07:31:37;;;;;;;13.50;6.10;;;2.70;41.60;;;;;;5020060;28;20047;-69
2022/03/12 07:34:04;;;;;;;20.60;6.85;;;4.40;39.40;;;;;;5019417;28;20037;-70
2022/03/12 07:36:30;;;;;;;18.15;7.78;;;6.30;35.30;;;;;;5019431;28;20041;-70
2022/03/12 07:38:58;;;;;;;19.13;7.47;;;8.10;32.10;;;;;;5019332;28;20044;-74
2022/03/12 07:41:24;;;;;;;11.38;5.68;;;9.80;29.80;;;;;;5019606;28;20802;-68
2022/03/12 07:43:50;;;;;;;22.13;7.95;;;11.00;27.80;;;;;;5022747;28;20032;-69
2022/03/12 07:46:16;;;;;;;17.20;7.05;;;10.90;27.80;;;;;;5019376;28;20041;-73
2022/03/12 07:48:41;;;;;;;16.90;7.70;;;11.00;28.30;;;;;;5020020;28;20029;-70
2022/03/12 07:51:09;;;;;;;14.75;7.65;;;11.40;28.00;;;;;;5019987;28;20029;-71
2022/03/12 07:53:36;;;;;;;20.10;7.47;;;12.00;26.70;;;;;;5020476;28;20029;-71
2022/03/12 07:56:03;;;;;;;18.77;7.13;;;11.80;26.40;;;;;;5019789;28;20118;-69
2022/03/12 07:58:29;;;;;;;17.27;7.20;;;12.60;26.20;;;;;;5020121;28;20063;-70
2022/03/12 08:00:56;;;;;;;15.05;7.10;;;13.10;25.20;;;;;;5019630;28;20026;-71
2022/03/12 08:03:23;;;;;;;13.80;7.72;;;12.30;25.40;;;;;;5020370;28;20084;-71
2022/03/12 08:05:50;;;;;;;14.90;7.53;;;11.20;27.00;;;;;;5019120;28;20486;-71
2022/03/12 08:08:17;;;;;;;13.55;6.63;;;10.70;27.00;;;;;;5018345;28;20029;-71
2022/03/12 08:13:29;;;;;;;10.40;5.25;;;10.60;27.50;;;;;;5017259;28;20059;-70
2022/03/12 08:15:56;;;;;;;13.30;5.57;;;10.90;26.40;;;;;;5019137;28;20041;-68
2022/03/12 08:18:22;;;;;;;14.15;6.22;;;11.40;26.20;;;;;;5019458;28;20037;-68
2022/03/12 08:20:48;;;;;;;16.73;6.45;;;10.50;26.30;;;;;;5021518;28;20140;-69
2022/03/12 08:23:15;;;;;;;11.75;5.90;;;9.90;27.40;;;;;;5018736;28;20034;-69
2022/03/12 08:25:42;;;;;;;11.38;5.88;;;8.40;28.60;;;;;;5019242;28;20033;-69
2022/03/12 08:28:09;;;;;;;12.77;5.32;;;7.50;30.00;;;;;;5019241;28;20118;-69
2022/03/12 08:30:36;;;;;;;12.88;5.50;;;7.00;30.20;;;;;;5019357;28;20026;-68
2022/03/12 08:33:04;;;;;;;14.52;6.13;;;7.10;30.90;;;;;;5019414;28;20044;-68
2022/03/12 08:35:30;;;;;;;12.73;5.40;;;7.80;29.50;;;;;;5019590;28;20033;-69
2022/03/12 08:37:56;;;;;;;18.45;5.45;;;8.10;29.50;;;;;;5019176;28;20071;-69
2022/03/12 08:40:25;;;;;;;13.13;6.13;;;8.60;28.70;;;;;;5019509;28;20125;-68
2022/03/12 08:42:55;;;;;;;11.25;5.07;;;8.30;29.20;;;;;;5016969;28;20401;-68
2022/03/12 08:45:21;;;;;;;17.50;9.32;;;8.50;29.00;;;;;;5016068;28;20057;-69
2022/03/12 08:47:47;;;;;;;12.85;5.95;;;9.10;28.30;;;;;;5018572;28;20140;-69
2022/03/12 08:50:13;;;;;;;12.57;6.25;;;9.00;28.50;;;;;;5019726;28;20099;-69
2022/03/12 08:52:41;;;;;;;10.63;6.55;;;9.50;27.90;;;;;;5022706;28;20116;-71
2022/03/12 08:55:08;;;;;;;12.15;6.15;;;9.80;27.80;;;;;;5024691;28;20052;-69
2022/03/12 08:57:35;;;;;;;13.77;6.13;;;10.20;27.00;;;;;;5023447;28;20048;-70
2022/03/12 09:00:05;;;;;;;13.88;6.20;;;9.80;27.60;;;;;;5022498;28;20049;-70
2022/03/12 09:02:33;;;;;;;12.68;5.85;;;9.00;28.30;;;;;;5019229;28;20131;-70
2022/03/12 09:05:00;;;;;;;11.88;5.30;;;9.70;27.30;;;;;;5022368;28;20639;-70
2022/03/12 09:07:26;;;;;;;10.80;4.80;;;11.60;26.00;;;;;;5021933;28;20037;-70
2022/03/12 09:09:54;;;;;;;10.95;5.65;;;13.10;25.20;;;;;;5022733;28;20083;-71
2022/03/12 09:12:19;;;;;;;10.38;5.47;;;14.50;23.50;;;;;;5023166;28;20026;-70
2022/03/12 09:14:46;;;;;;;11.48;5.60;;;17.30;22.00;;;;;;5023098;28;20072;-70
2022/03/12 09:17:12;;;;;;;10.85;5.68;;;19.60;20.60;;;;;;5022698;28;20490;-70
2022/03/12 09:19:40;;;;;;;13.80;6.10;;;20.40;19.70;;;;;;5019921;28;20049;-72
2022/03/12 09:22:06;;;;;;;14.48;5.97;;;20.50;19.90;;;;;;5023150;28;20036;-72
2022/03/12 09:24:32;;;;;;;9.80;5.40;;;21.90;19.10;;;;;;5023328;28;20570;-72
2022/03/12 09:26:57;;;;;;;13.50;6.15;;;22.00;18.60;;;;;;5023104;28;20029;-71
2022/03/12 09:29:23;;;;;;;9.65;5.30;;;23.60;18.00;;;;;;5023076;28;20030;-71
2022/03/12 09:31:49;;;;;;;9.43;5.32;;;22.10;18.00;;;;;;5023132;28;20569;-71
2022/03/12 09:34:15;;;;;;;8.95;5.05;;;19.40;19.80;;;;;;5023400;28;20063;-70
2022/03/12 09:36:42;;;;;;;10.85;5.10;;;16.30;21.10;;;;;;5023097;28;20036;-70
2022/03/12 09:39:07;;;;;;;9.85;5.18;;;14.20;23.50;;;;;;5023560;28;20033;-70
2022/03/12 09:41:34;;;;;;;11.98;5.03;;;12.50;24.60;;;;;;5022275;28;20560;-70
2022/03/12 09:44:00;;;;;;;9.20;4.30;;;11.50;25.40;;;;;;5023103;28;20034;-70
2022/03/12 09:46:26;;;;;;;9.50;5.05;;;13.40;24.00;;;;;;5019614;28;20124;-70
2022/03/12 09:48:52;;;;;;;10.55;5.82;;;14.20;23.10;;;;;;5022534;28;20044;-70
2022/03/12 09:51:18;;;;;;;10.93;4.95;;;13.20;23.70;;;;;;5022475;28;20382;-72
2022/03/12 09:53:44;;;;;;;11.80;4.88;;;12.00;24.90;;;;;;5022438;28;20103;-70
2022/03/12 09:56:10;;;;;;;9.57;4.30;;;12.00;25.20;;;;;;5022349;28;20033;-71
2022/03/12 09:58:36;;;;;;;9.05;4.38;;;14.80;23.80;;;;;;5022774;28;20029;-72
2022/03/12 10:01:02;;;;;;;10.77;5.25;;;17.70;21.30;;;;;;5021522;28;20040;-71
2022/03/12 10:03:28;;;;;;;10.18;5.00;;;18.30;21.00;;;;;;5022288;28;20490;-70
2022/03/12 10:05:54;;;;;;;11.35;4.72;;;18.20;20.90;;;;;;5022022;28;20171;-71
2022/03/12 10:08:19;;;;;;;9.50;5.22;;;18.50;20.80;;;;;;5020444;28;20033;-70
2022/03/12 10:10:45;;;;;;;8.48;4.60;;;19.70;19.60;;;;;;5020864;28;20026;-70
2022/03/12 10:13:11;;;;;;;10.80;5.32;;;20.60;19.30;;;;;;5022059;28;20045;-72
2022/03/12 10:15:37;;;;;;;9.48;4.65;;;22.10;18.80;;;;;;5021327;28;20048;-70
2022/03/12 10:18:03;;;;;;;9.07;5.15;;;22.00;18.70;;;;;;5022189;28;20033;-71
2022/03/12 10:20:30;;;;;;;6.80;4.63;;;20.50;19.50;;;;;;5021920;28;20033;-70
2022/03/12 10:22:56;;;;;;;9.32;5.00;;;20.80;19.50;;;;;;5021913;28;20030;-70
2022/03/12 10:25:22;;;;;;;8.45;4.60;;;23.00;17.90;;;;;;5021379;28;20037;-70
2022/03/12 10:27:49;;;;;;;9.13;4.95;;;23.30;17.50;;;;;;5023318;28;20037;-70
2022/03/12 10:30:15;;;;;;;9.70;4.88;;;24.60;17.80;;;;;;5021482;28;20040;-70
2022/03/12 10:32:47;;;;;;;7.93;4.50;;;25.90;17.10;;;;;;5022256;28;20041;-71
2022/03/12 10:35:21;;;;;;;8.23;5.07;;;26.70;16.50;;;;;;5018008;28;20112;-71
2022/03/12 10:37:49;;;;;;;7.32;4.63;;;26.80;16.70;;;;;;5020647;28;20127;-70
2022/03/12 10:40:20;;;;;;;7.72;4.25;;;26.90;16.50;;;;;;5021972;28;20067;-69
2022/03/12 10:42:49;;;;;;;8.35;4.63;;;28.00;16.40;;;;;;5020904;28;20422;-72
2022/03/12 10:45:21;;;;;;;8.30;4.63;;;29.50;15.90;;;;;;5014606;28;20041;-68
2022/03/12 10:47:51;;;;;;;9.55;4.97;;;30.60;15.70;;;;;;5020879;28;20128;-70
2022/03/12 10:50:29;;;;;;;7.68;4.20;;;30.90;15.70;;;;;;5021434;28;20131;-68
2022/03/12 10:52:58;;;;;;;7.82;4.40;;;31.50;15.40;;;;;;5020961;28;20029;-69
2022/03/12 10:55:30;;;;;;;12.10;4.35;;;31.70;15.20;;;;;;5020684;28;20029;-69
2022/03/12 10:58:02;;;;;;;9.38;4.13;;;31.80;15.60;;;;;;5020789;28;20033;-69
2022/03/12 11:00:44;;;;;;;6.45;3.60;;;32.30;15.30;;;;;;5021132;28;20047;-68
2022/03/12 11:03:14;;;;;;;6.72;3.28;;;32.80;14.70;;;;;;5019424;28;20128;-68
2022/03/12 11:05:43;;;;;;;5.35;3.42;;;30.60;14.70;;;;;;5021385;28;20037;-68
2022/03/12 11:08:16;;;;;;;7.68;4.03;;;29.50;14.70;;;;;;5017386;28;20032;-70
2022/03/12 11:10:48;;;;;;;7.03;3.70;;;28.60;14.90;;;;;;5021096;28;20066;-71
2022/03/12 11:13:25;;;;;;;5.25;3.90;;;29.00;15.10;;;;;;5019602;28;20038;-68
2022/03/12 11:16:12;;;;;;;6.40;3.78;;;30.00;15.00;;;;;;5019884;28;20053;-70
2022/03/12 11:18:59;;;;;;;6.75;3.97;;;30.60;15.20;;;;;;5020827;28;20098;-75
2022/03/12 11:21:44;;;;;;;8.07;4.60;;;26.90;15.80;;;;;;5020382;28;20051;-70
2022/03/12 11:24:27;;;;;;;6.03;3.75;;;22.40;17.80;;;;;;5020890;28;20033;-70
2022/03/12 11:27:04;;;;;;;8.70;4.20;;;18.50;19.70;;;;;;5019955;28;20037;-71
2022/03/12 11:29:30;;;;;;;7.13;3.38;;;15.90;21.10;;;;;;5020414;28;20090;-70
2022/03/12 11:32:05;;;;;;;8.70;3.42;;;14.20;21.90;;;;;;5023789;28;20084;-70
2022/03/12 11:34:39;;;;;;;10.93;3.50;;;13.30;23.00;;;;;;5017008;28;20071;-70
2022/03/12 11:37:13;;;;;;;5.22;3.05;;;12.80;23.40;;;;;;5018379;28;20284;-70
2022/03/12 11:39:53;;;;;;;10.18;4.13;;;12.50;23.20;;;;;;5019738;28;20902;-69
2022/03/12 11:42:24;;;;;;;7.30;3.95;;;12.40;24.30;;;;;;5018684;28;20100;-69
2022/03/12 11:44:51;;;;;;;7.57;4.15;;;12.40;23.60;;;;;;5018167;28;20117;-69
2022/03/12 11:47:20;;;;;;;4.15;3.28;;;12.40;23.80;;;;;;5019616;28;20030;-70
2022/03/12 11:49:47;;;;;;;7.72;3.40;;;12.30;23.80;;;;;;5019911;28;20030;-69
2022/03/12 11:52:14;;;;;;;5.57;3.30;;;12.20;24.20;;;;;;5019774;28;20029;-70
2022/03/12 11:54:42;;;;;;;7.35;3.45;;;12.10;23.80;;;;;;5020604;28;20041;-69
2022/03/12 11:57:15;;;;;;;6.18;3.47;;;12.10;24.20;;;;;;5019320;28;20128;-69
2022/03/12 11:59:41;;;;;;;7.65;3.92;;;12.20;24.10;;;;;;5019936;28;20029;-70
2022/03/12 12:02:33;;;;;;;4.90;3.22;;;12.30;24.00;;;;;;5019548;28;20719;-70
2022/03/12 12:05:10;;;;;;;7.47;4.47;;;12.20;23.80;;;;;;5019525;28;20173;-70
2022/03/12 12:07:36;;;;;;;6.78;3.88;;;12.20;24.20;;;;;;5016057;28;20029;-69
2022/03/12 12:10:08;;;;;;;8.35;3.90;;;12.20;24.10;;;;;;5020249;28;20029;-70
2022/03/12 12:12:34;;;;;;;9.98;3.75;;;12.10;24.40;;;;;;5019480;28;20167;-70
2022/03/12 12:15:03;;;;;;;8.73;3.80;;;12.00;24.10;;;;;;5019475;28;20045;-70
2022/03/12 12:17:33;;;;;;;10.90;3.45;;;12.10;24.20;;;;;;5009354;28;20029;-70
2022/03/12 12:19:59;;;;;;;5.35;3.22;;;12.10;24.30;;;;;;5015898;28;20033;-72
2022/03/12 12:22:27;;;;;;;6.13;3.50;;;12.10;24.10;;;;;;5017121;28;20029;-70
2022/03/12 12:24:55;;;;;;;6.00;3.38;;;12.10;24.10;;;;;;5019558;28;20038;-70
2022/03/12 12:27:23;;;;;;;6.05;3.25;;;12.10;24.20;;;;;;5021971;28;20075;-69
2022/03/12 12:29:56;;;;;;;5.25;3.10;;;12.10;24.20;;;;;;5025075;28;20109;-69
2022/03/12 12:32:29;;;;;;;6.07;3.63;;;12.00;23.70;;;;;;5020467;28;20069;-67
2022/03/12 12:35:04;;;;;;;4.63;2.95;;;12.00;24.30;;;;;;5023216;28;20489;-68
2022/03/12 12:37:57;;;;;;;6.53;3.85;;;12.10;23.50;;;;;;5022930;28;20052;-69
2022/03/12 12:40:40;;;;;;;4.85;3.00;;;12.00;23.50;;;;;;5020311;28;20529;-70
2022/03/12 12:43:12;;;;;;;6.22;3.80;;;12.00;24.00;;;;;;5021922;28;20033;-69
2022/03/12 12:45:47;;;;;;;4.47;2.83;;;12.10;24.10;;;;;;5023068;28;20041;-68
2022/03/12 12:48:15;;;;;;;5.75;2.92;;;12.10;23.70;;;;;;5020314;28;20175;-68
2022/03/12 12:51:02;;;;;;;4.07;2.88;;;12.10;24.10;;;;;;5022900;28;20040;-69
2022/03/12 12:53:30;;;;;;;5.63;3.45;;;12.10;23.40;;;;;;5020017;28;20033;-69